Aérodrome :
LOGIN :

S'inscrire | Disclaimer

   EN    FR    IT 

 










Légende :    VFR   VFR Marginal   IFR   IFR Intensif   IFR Très Intensif
Visi : 
Plafond : 
>= 8 km
>= 3000ft
5 à 8 km
1000 à 3000 ft
1500m à 5 km
500 à 1000 ft
800 à 1500m
200 à 500 ft
< 800m
< 200 ft
Symboles :   Orages  Brouillard  Fortes neiges  Fortes précipitations  Vent > 20 kt
SIGMETs :   Divers  Orages  Givrage  Turbulence  Onde Orograph.  Cendres Volcan.






- Altitude de l'aérodrome : 600 ft
- Code IATA : VIE


LOWW - Vienna Schwechat

DERNIER METAR :
  • 192350Z 31012KT 9999 -RASN FEW005 SCT008 BKN013 01/01 Q1039 R88/29//95 TEMPO SCT009 OVC020

METARs EXPIRÉS :
  • 192320Z 32010KT 9999 -RA FEW005 BKN008 01/01 Q1039 R88/29//95 TEMPO SCT009 OVC020
  • 192250Z 32011KT 9999 -RA FEW006 BKN008 02/01 Q1038 R88/29//95 TEMPO SCT009 OVC020
  • 192220Z 32012KT 9999 -RA FEW005 SCT007 BKN017 02/01 Q1038 R88/29//95 TEMPO BKN009 OVC020
  • 192150Z 32012KT 9000 -RA FEW005 BKN008 BKN018 02/01 Q1038 R88/29//95 TEMPO SCT009 OVC020
  • 192120Z 31012KT 8000 -RA FEW006 BKN009 BKN020 02/01 Q1037 R88/29//95 TEMPO SCT009 OVC020

TAF TAF LOWW
Valide du 20 à 00h jusqu'au 21 à 06h UTC


192315Z 2000/2106 32010KT 9999 -RA SCT010 BKN020 TX04/2013Z TNM02/2105Z
PROB30
TEMPO 2000/2003 4500 RASN BKN009 OVC018
BECMG 2010/2012 36006KT NSW BKN030
BECMG 2017/2019 VRB02KT SCT030
BECMG 2100/2103 0700 FZFG VV001



MET'MAP, la Météo Aéronautique d'un coup d'oeil ! - Copyright ORBIFLY Décembre 2007 - Disclaimer

ORBIFLY MET'MAP TEAM :

Programmation & Développement : Alexandra Zaïnal
Sur une idée originale de : Baudouin d'Aumeries
Assistance à la programmation : Marc-Olivier Méhu
Soutien technique & logistique : Manuel Goepfert

Contact : metmap@orbifly.com




SOURCES & CREDITS :

   NOAA